createdAt,value
2019-06-27T00:00:10.600Z,100062.52
2019-06-27T00:03:16.416Z,100065.92
2019-06-27T00:06:22.089Z,100056.07
2019-06-27T00:09:27.847Z,100060.34
2019-06-27T00:12:33.565Z,100061.86
2019-06-27T00:15:39.394Z,100059.55
2019-06-27T00:18:45.082Z,100057.27
2019-06-27T00:21:50.779Z,100062.14
2019-06-27T00:24:56.531Z,100054.32
2019-06-27T00:28:02.234Z,100054.94
2019-06-27T00:31:07.932Z,100063.73
2019-06-27T00:34:13.618Z,100061.95
2019-06-27T00:37:19.278Z,100059.80
2019-06-27T00:40:24.983Z,100056.45
2019-06-27T00:43:30.662Z,100057.03
2019-06-27T00:46:36.337Z,100059.86
2019-06-27T00:49:42.067Z,100056.69
2019-06-27T00:52:47.755Z,100058.70
2019-06-27T00:55:53.472Z,100048.47
2019-06-27T00:58:59.136Z,100055.45
2019-06-27T01:02:04.832Z,100056.73
2019-06-27T01:05:10.883Z,100058.09
2019-06-27T01:08:16.627Z,100058.16
2019-06-27T01:11:22.325Z,100054.59
2019-06-27T01:14:28.348Z,100052.38
2019-06-27T01:17:34.521Z,100051.92
2019-06-27T01:20:40.517Z,100044.82
2019-06-27T01:23:46.930Z,100049.16
2019-06-27T01:26:52.691Z,100048.58
2019-06-27T01:29:58.747Z,100046.66
2019-06-27T01:33:05.078Z,100051.11
2019-06-27T01:36:11.892Z,100048.99
2019-06-27T01:39:17.602Z,100048.75
2019-06-27T01:42:23.463Z,100045.95
2019-06-27T01:45:38.534Z,100045.70
2019-06-27T01:48:44.229Z,100043.21
2019-06-27T01:51:49.888Z,100039.00
2019-06-27T01:54:55.587Z,100036.89
2019-06-27T01:58:01.352Z,100038.33
2019-06-27T02:01:07.206Z,100030.18
2019-06-27T02:04:12.897Z,100031.93
2019-06-27T02:07:18.572Z,100033.34
2019-06-27T02:10:24.482Z,100030.42
2019-06-27T02:13:30.185Z,100028.27
2019-06-27T02:16:35.912Z,100034.94
2019-06-27T02:19:41.588Z,100034.73
2019-06-27T02:22:47.296Z,100031.45
2019-06-27T02:25:52.943Z,100028.41
2019-06-27T02:28:58.633Z,100037.84
2019-06-27T02:32:04.304Z,100030.55
2019-06-27T02:35:10.620Z,100031.38
2019-06-27T02:38:16.447Z,100030.38
2019-06-27T02:41:22.137Z,100035.07
2019-06-27T02:44:27.839Z,100042.11
2019-06-27T02:47:34.650Z,100029.27
2019-06-27T02:50:40.364Z,100027.69
2019-06-27T02:53:46.087Z,100027.71
2019-06-27T02:56:51.781Z,100021.87
2019-06-27T02:59:57.520Z,100024.27
2019-06-27T03:03:03.281Z,100025.67
2019-06-27T03:06:09.168Z,100026.18
2019-06-27T03:09:14.854Z,100020.53
2019-06-27T03:12:20.519Z,100022.21
2019-06-27T03:15:26.252Z,100013.00
2019-06-27T03:18:32.038Z,100016.68
2019-06-27T03:21:37.738Z,100011.02
2019-06-27T03:24:43.455Z,100017.17
2019-06-27T03:27:49.174Z,100015.48
2019-06-27T03:30:54.878Z,100012.73
2019-06-27T03:34:00.644Z,100008.64
2019-06-27T03:37:06.417Z,100013.68
2019-06-27T03:40:12.523Z,100016.17
2019-06-27T03:43:18.240Z,100012.87
2019-06-27T03:46:24.018Z,100004.30
2019-06-27T03:49:29.694Z,100007.58
2019-06-27T03:52:35.511Z,100003.48
2019-06-27T03:55:41.222Z,100003.08
2019-06-27T03:58:46.905Z,99999.05
2019-06-27T04:01:52.639Z,99996.98
2019-06-27T04:04:59.453Z,99995.34
2019-06-27T04:08:05.268Z,99992.00
2019-06-27T04:11:11.020Z,99993.46
2019-06-27T04:14:16.704Z,99996.02
2019-06-27T04:17:22.370Z,99988.89
2019-06-27T04:20:28.085Z,99986.86
2019-06-27T04:23:33.791Z,99989.48
2019-06-27T04:26:39.471Z,99994.30
2019-06-27T04:29:46.369Z,99995.70
2019-06-27T04:32:52.053Z,99995.73
2019-06-27T04:35:57.735Z,99986.57
2019-06-27T04:39:05.105Z,99992.71
2019-06-27T04:42:10.768Z,99988.92
2019-06-27T04:45:16.507Z,99989.02
2019-06-27T04:48:22.213Z,99987.42
2019-06-27T04:51:27.919Z,99997.81
2019-06-27T04:54:33.638Z,99988.77
2019-06-27T04:57:39.311Z,99988.77
2019-06-27T05:00:45.006Z,99988.83
2019-06-27T05:03:50.774Z,99994.44
2019-06-27T05:06:56.431Z,99997.69
2019-06-27T05:10:02.133Z,100000.05
2019-06-27T05:13:08.820Z,99998.66
2019-06-27T05:16:14.510Z,99998.58
2019-06-27T05:19:20.216Z,100001.73
2019-06-27T05:22:25.926Z,100003.11
2019-06-27T05:25:31.589Z,100004.94
2019-06-27T05:28:37.301Z,100001.52
2019-06-27T05:31:43.023Z,100003.11
2019-06-27T05:34:48.706Z,100001.48
2019-06-27T05:37:54.394Z,99997.72
2019-06-27T05:41:00.180Z,99995.80
2019-06-27T05:44:05.995Z,99992.81
2019-06-27T05:47:11.713Z,99995.28
2019-06-27T05:50:17.502Z,99994.04
2019-06-27T05:53:23.196Z,99994.67
2019-06-27T05:56:28.898Z,99993.55
2019-06-27T05:59:34.568Z,99996.10
2019-06-27T06:02:40.236Z,99993.44
2019-06-27T06:05:47.271Z,99990.28
2019-06-27T06:08:53.071Z,99986.37
2019-06-27T06:11:58.782Z,99987.86
2019-06-27T06:15:04.574Z,99981.43
2019-06-27T06:18:10.248Z,99979.00
2019-06-27T06:21:15.919Z,99977.80
2019-06-27T06:24:21.879Z,99979.27
2019-06-27T06:27:27.624Z,99982.45
2019-06-27T06:30:43.830Z,99975.83
2019-06-27T06:33:40.880Z,99969.84
2019-06-27T06:36:46.491Z,99967.09
2019-06-27T06:39:52.199Z,99962.51
2019-06-27T06:43:00.450Z,99961.93
2019-06-27T06:46:06.343Z,99954.36
2019-06-27T06:49:13.205Z,99945.09
2019-06-27T06:52:24.337Z,99939.37
2019-06-27T06:55:35.786Z,99939.87
2019-06-27T06:58:41.657Z,99944.34
2019-06-27T07:01:47.428Z,99929.12
2019-06-27T07:04:53.160Z,99929.08
2019-06-27T07:07:58.900Z,99926.03
2019-06-27T07:11:04.703Z,99926.27
2019-06-27T07:14:10.407Z,99924.59
2019-06-27T07:17:16.079Z,99921.36
2019-06-27T07:20:22.116Z,99920.38
2019-06-27T07:23:27.812Z,99911.38
2019-06-27T07:26:34.634Z,99910.88
2019-06-27T07:29:40.349Z,99900.71
2019-06-27T07:32:46.044Z,99902.23
2019-06-27T07:35:51.716Z,99897.06
2019-06-27T07:38:57.426Z,99888.47
2019-06-27T07:42:03.125Z,99896.57
2019-06-27T07:45:10.222Z,99885.25
2019-06-27T07:48:15.908Z,99884.19
2019-06-27T07:51:21.555Z,99882.75
2019-06-27T07:54:27.274Z,99876.22
2019-06-27T07:57:32.925Z,99876.06
2019-06-27T08:00:38.615Z,99870.69
2019-06-27T08:03:44.274Z,99870.10
2019-06-27T08:06:50.002Z,99859.33
2019-06-27T08:09:55.685Z,99865.77
2019-06-27T08:13:01.370Z,99859.55
2019-06-27T08:16:07.029Z,99860.75
2019-06-27T08:19:12.712Z,99859.22
2019-06-27T08:22:18.391Z,99855.10
2019-06-27T08:25:24.264Z,99856.87
2019-06-27T08:28:29.994Z,99842.53
2019-06-27T08:31:50.568Z,99846.44
2019-06-27T08:34:43.045Z,99841.18
2019-06-27T08:37:48.780Z,99839.92
2019-06-27T08:40:54.524Z,99838.53
2019-06-27T08:44:00.223Z,99835.94
2019-06-27T08:47:05.991Z,99836.74
2019-06-27T08:50:12.412Z,99831.91
2019-06-27T08:53:18.066Z,99819.20
2019-06-27T08:56:23.775Z,99812.52
2019-06-27T08:59:29.485Z,99816.05
2019-06-27T09:02:35.203Z,99816.70
2019-06-27T09:05:41.028Z,99805.93
2019-06-27T09:08:46.677Z,99806.81
2019-06-27T09:11:53.360Z,99802.98
2019-06-27T09:14:59.026Z,99797.86
2019-06-27T09:18:04.817Z,99794.09
2019-06-27T09:21:10.633Z,99792.12
2019-06-27T09:24:16.315Z,99795.45
2019-06-27T09:27:22.027Z,99786.01
2019-06-27T09:30:27.934Z,99786.83
2019-06-27T09:33:33.636Z,99783.58
2019-06-27T09:36:39.335Z,99784.38
2019-06-27T09:39:45.015Z,99775.44
2019-06-27T09:42:50.828Z,99770.53
2019-06-27T09:45:56.475Z,99770.58
2019-06-27T09:49:02.190Z,99768.29
2019-06-27T09:52:08.980Z,99761.35
2019-06-27T09:55:15.201Z,99752.52
2019-06-27T09:58:20.871Z,99756.91
2019-06-27T10:01:26.592Z,99750.52
2019-06-27T10:04:32.226Z,99745.41
2019-06-27T10:07:38.031Z,99739.16
2019-06-27T10:10:43.714Z,99733.31
2019-06-27T10:13:49.430Z,99729.63
2019-06-27T10:16:58.471Z,99725.55
2019-06-27T10:20:02.538Z,99721.50
2019-06-27T10:23:08.153Z,99722.28
2019-06-27T10:26:13.987Z,99713.57
2019-06-27T10:29:19.678Z,99716.25
2019-06-27T10:32:25.325Z,99708.55
2019-06-27T10:35:31.035Z,99700.62
2019-06-27T10:38:36.767Z,99704.08
2019-06-27T10:41:42.495Z,99691.95
2019-06-27T10:44:48.152Z,99687.97
2019-06-27T10:47:54.931Z,99690.43
2019-06-27T10:51:00.584Z,99687.28
2019-06-27T10:54:06.279Z,99674.88
2019-06-27T10:57:11.937Z,99673.44
2019-06-27T11:00:19.182Z,99668.45
2019-06-27T11:03:24.847Z,99664.72
2019-06-27T11:06:31.572Z,99662.40
2019-06-27T11:09:37.209Z,99654.99
2019-06-27T11:12:45.165Z,99655.62
2019-06-27T11:15:50.322Z,99640.21
2019-06-27T11:18:56.046Z,99634.49
2019-06-27T11:22:01.734Z,99643.53
2019-06-27T11:25:08.495Z,99638.62
2019-06-27T11:28:14.139Z,99633.18
2019-06-27T11:31:19.877Z,99619.83
2019-06-27T11:34:25.539Z,99626.59
2019-06-27T11:37:31.228Z,99616.55
2019-06-27T11:40:36.882Z,99613.87
2019-06-27T11:43:42.639Z,99610.08
2019-06-27T11:46:48.268Z,99604.65
2019-06-27T11:49:54.038Z,99594.19
2019-06-27T11:52:59.751Z,99594.14
2019-06-27T11:56:05.596Z,99585.88
2019-06-27T11:59:11.281Z,99592.26
2019-06-27T12:02:16.991Z,99580.53
2019-06-27T12:05:22.762Z,99577.77
2019-06-27T12:08:28.496Z,99568.88
2019-06-27T12:11:34.237Z,99568.45
2019-06-27T12:14:39.925Z,99558.64
2019-06-27T12:17:45.796Z,99560.91
2019-06-27T12:20:51.519Z,99559.81
2019-06-27T12:23:57.157Z,99546.63
2019-06-27T12:27:02.874Z,99550.60
2019-06-27T12:30:08.825Z,99546.25
2019-06-27T12:33:14.479Z,99541.63
2019-06-27T12:36:20.265Z,99533.55
2019-06-27T12:39:25.993Z,99536.40
2019-06-27T12:42:32.991Z,99535.50
2019-06-27T12:45:38.787Z,99526.87
2019-06-27T12:48:44.475Z,99521.34
2019-06-27T12:51:50.185Z,99523.65
2019-06-27T12:54:55.819Z,99517.05
2019-06-27T12:58:01.521Z,99513.39
2019-06-27T13:01:07.280Z,99503.11
2019-06-27T13:04:22.838Z,99499.06
2019-06-27T13:07:20.414Z,99494.98
2019-06-27T13:10:35.661Z,99486.14
2019-06-27T13:13:41.479Z,99485.82
2019-06-27T13:16:47.177Z,99484.67
2019-06-27T13:19:52.840Z,99486.67
2019-06-27T13:22:58.518Z,99485.19
2019-06-27T13:26:04.327Z,99474.25
2019-06-27T13:29:10.006Z,99469.49
2019-06-27T13:32:15.692Z,99451.97
2019-06-27T13:35:21.348Z,99454.27
2019-06-27T13:38:27.090Z,99446.80
2019-06-27T13:41:32.818Z,99451.48
2019-06-27T13:44:39.591Z,99452.00
2019-06-27T13:47:45.298Z,99449.19
2019-06-27T13:50:51.100Z,99440.19
2019-06-27T13:53:56.770Z,99438.63
2019-06-27T13:57:02.516Z,99433.58
2019-06-27T14:00:08.967Z,99431.53
2019-06-27T14:03:14.861Z,99425.59
2019-06-27T14:06:20.585Z,99419.30
2019-06-27T14:09:26.276Z,99417.89
2019-06-27T14:12:32.143Z,99406.80
2019-06-27T14:15:37.897Z,99407.37
2019-06-27T14:18:43.562Z,99399.87
2019-06-27T14:21:50.308Z,99390.34
2019-06-27T14:24:56.043Z,99383.89
2019-06-27T14:28:01.709Z,99376.81
2019-06-27T14:31:07.462Z,99377.84
2019-06-27T14:34:13.186Z,99376.63
2019-06-27T14:37:19.973Z,99369.78
2019-06-27T14:40:25.781Z,99363.67
2019-06-27T14:43:31.424Z,99362.16
2019-06-27T14:46:37.595Z,99352.65
2019-06-27T14:49:43.378Z,99352.09
2019-06-27T14:52:49.033Z,99346.45
2019-06-27T14:55:54.723Z,99334.52
2019-06-27T14:59:00.399Z,99336.25
2019-06-27T15:02:06.240Z,99329.95
2019-06-27T15:05:12.249Z,99328.11
2019-06-27T15:08:18.051Z,99323.20
2019-06-27T15:11:23.729Z,99314.14
2019-06-27T15:14:29.429Z,99306.13
2019-06-27T15:17:35.209Z,99306.61
2019-06-27T15:20:40.930Z,99305.53
2019-06-27T15:23:46.585Z,99300.35
2019-06-27T15:26:52.382Z,99299.46
2019-06-27T15:29:58.048Z,99295.14
2019-06-27T15:33:04.849Z,99288.41
2019-06-27T15:36:10.539Z,99287.28
2019-06-27T15:39:16.312Z,99276.52
2019-06-27T15:42:22.304Z,99275.53
2019-06-27T15:45:28.150Z,99268.62
2019-06-27T15:48:34.214Z,99273.30
2019-06-27T15:51:40.096Z,99265.10
2019-06-27T15:54:45.834Z,99254.34
2019-06-27T15:57:51.622Z,99244.64
2019-06-27T16:00:57.345Z,99248.08
2019-06-27T16:04:03.107Z,99246.90
2019-06-27T16:07:08.817Z,99249.61
2019-06-27T16:10:14.878Z,99245.13
2019-06-27T16:13:20.548Z,99244.95
2019-06-27T16:16:26.368Z,99244.28
2019-06-27T16:19:32.093Z,99243.69
2019-06-27T16:22:37.899Z,99243.11
2019-06-27T16:25:43.618Z,99238.98
2019-06-27T16:28:50.372Z,99241.64
2019-06-27T16:31:57.068Z,99241.83
2019-06-27T16:35:02.798Z,99246.14
2019-06-27T16:38:08.564Z,99240.22
2019-06-27T16:41:14.270Z,99235.27
2019-06-27T16:44:19.970Z,99230.80
2019-06-27T16:47:25.656Z,99233.66
2019-06-27T16:50:31.443Z,99237.16
2019-06-27T16:53:37.135Z,99233.36
2019-06-27T16:56:43.108Z,99226.47
2019-06-27T16:59:48.803Z,99233.94
2019-06-27T17:02:54.479Z,99230.59
2019-06-27T17:06:00.208Z,99223.37
2019-06-27T17:09:06.962Z,99216.27
2019-06-27T17:12:12.649Z,99207.66
2019-06-27T17:15:18.648Z,99199.23
2019-06-27T17:18:24.341Z,99197.00
2019-06-27T17:21:29.999Z,99197.52
2019-06-27T17:24:35.669Z,99201.11
2019-06-27T17:27:41.360Z,99201.99
2019-06-27T17:30:47.159Z,99202.45
2019-06-27T17:33:52.818Z,99199.43
2019-06-27T17:36:58.450Z,99194.63
2019-06-27T17:40:04.343Z,99195.70
2019-06-27T17:43:10.010Z,99197.73
2019-06-27T17:46:15.711Z,99192.98
2019-06-27T17:49:21.423Z,99192.37
2019-06-27T17:52:27.174Z,99201.41
2019-06-27T17:55:32.885Z,99201.88
2019-06-27T17:58:38.634Z,99196.39
2019-06-27T18:01:44.320Z,99202.09
2019-06-27T18:04:50.029Z,99192.80
2019-06-27T18:07:55.725Z,99195.36
2019-06-27T18:11:02.400Z,99199.73
2019-06-27T18:14:08.114Z,99201.81
2019-06-27T18:17:15.003Z,99211.62
2019-06-27T18:20:20.729Z,99214.36
2019-06-27T18:23:26.517Z,99214.50
2019-06-27T18:26:32.279Z,99217.13
2019-06-27T18:29:37.946Z,99219.08
2019-06-27T18:32:43.658Z,99218.25
2019-06-27T18:35:49.347Z,99218.58
2019-06-27T18:38:55.065Z,99229.84
2019-06-27T18:42:00.803Z,99237.37
2019-06-27T18:45:07.839Z,99236.73
2019-06-27T18:48:13.540Z,99238.34
2019-06-27T18:51:19.243Z,99235.72
2019-06-27T18:54:24.946Z,99232.46
2019-06-27T18:57:30.634Z,99234.38
2019-06-27T19:00:36.492Z,99241.47
2019-06-27T19:03:42.306Z,99239.30
2019-06-27T19:06:47.993Z,99244.64
2019-06-27T19:09:53.692Z,99243.98
2019-06-27T19:12:59.341Z,99242.94
2019-06-27T19:16:06.173Z,99247.21
2019-06-27T19:19:14.595Z,99252.06
2019-06-27T19:22:37.696Z,99254.24
2019-06-27T19:25:44.449Z,99260.69
2019-06-27T19:28:50.229Z,99262.30
2019-06-27T19:31:55.876Z,99278.42
2019-06-27T19:35:01.566Z,99278.11
2019-06-27T19:38:07.267Z,99286.17
2019-06-27T19:41:13.922Z,99286.73
2019-06-27T19:44:19.648Z,99297.48
2019-06-27T19:47:25.320Z,99306.67
2019-06-27T19:50:31.008Z,99308.31
2019-06-27T19:53:36.686Z,99310.72
2019-06-27T19:56:42.389Z,99319.02
2019-06-27T19:59:48.081Z,99310.41
2019-06-27T20:02:53.771Z,99312.83
2019-06-27T20:06:00.566Z,99310.69
2019-06-27T20:09:06.666Z,99309.34
2019-06-27T20:12:12.338Z,99314.72
2019-06-27T20:15:18.211Z,99313.63
2019-06-27T20:18:23.945Z,99315.78
2019-06-27T20:21:29.608Z,99313.92
2019-06-27T20:24:35.287Z,99308.02
2019-06-27T20:27:41.041Z,99309.13
2019-06-27T20:30:46.728Z,99312.03
2019-06-27T20:33:52.470Z,99312.02
2019-06-27T20:36:58.130Z,99310.13
2019-06-27T20:40:03.833Z,99307.47
2019-06-27T20:43:09.534Z,99303.12
2019-06-27T20:46:15.183Z,99300.93
2019-06-27T20:49:20.883Z,99302.05
2019-06-27T20:52:26.576Z,99304.93
2019-06-27T20:55:32.284Z,99299.84
2019-06-27T20:58:39.079Z,99300.91
2019-06-27T21:01:44.792Z,99304.30
2019-06-27T21:04:50.429Z,99310.77
2019-06-27T21:07:56.149Z,99313.44
2019-06-27T21:11:01.802Z,99311.74
2019-06-27T21:14:07.473Z,99301.50
2019-06-27T21:17:13.267Z,99301.22
2019-06-27T21:20:18.926Z,99305.81
2019-06-27T21:23:24.690Z,99306.15
2019-06-27T21:26:30.442Z,99308.17
2019-06-27T21:29:36.144Z,99305.56
2019-06-27T21:32:41.857Z,99304.51
2019-06-27T21:35:47.519Z,99315.31
2019-06-27T21:39:06.697Z,99301.17
2019-06-27T21:42:00.789Z,99297.03
2019-06-27T21:45:06.816Z,99295.20
2019-06-27T21:48:12.521Z,99292.80
2019-06-27T21:51:18.212Z,99292.23
2019-06-27T21:54:24.073Z,99299.27
2019-06-27T21:57:29.789Z,99307.96
2019-06-27T22:00:37.463Z,99303.38
2019-06-27T22:03:45.069Z,99299.31
2019-06-27T22:06:50.883Z,99282.67
2019-06-27T22:09:57.201Z,99290.55
2019-06-27T22:13:02.984Z,99286.81
2019-06-27T22:16:08.696Z,99276.02
2019-06-27T22:19:14.453Z,99265.45
2019-06-27T22:22:20.157Z,99261.05
2019-06-27T22:25:39.375Z,99270.22
2019-06-27T22:28:33.327Z,99251.10
2019-06-27T22:31:38.965Z,99252.83
2019-06-27T22:34:44.686Z,99262.42
2019-06-27T22:38:08.775Z,99252.25
2019-06-27T22:41:32.040Z,99249.41
2019-06-27T22:44:55.272Z,99243.23
2019-06-27T22:48:15.057Z,99245.94
2019-06-27T22:51:39.698Z,99252.75
2019-06-27T22:54:46.993Z,99256.40
2019-06-27T22:57:52.819Z,99243.98
2019-06-27T23:00:58.491Z,99239.83
2019-06-27T23:04:04.185Z,99240.23
2019-06-27T23:07:09.890Z,99235.28
2019-06-27T23:10:15.577Z,99234.70
2019-06-27T23:13:21.257Z,99226.78
2019-06-27T23:16:26.930Z,99213.69
2019-06-27T23:19:32.606Z,99207.27
2019-06-27T23:22:38.322Z,99197.53
2019-06-27T23:25:44.003Z,99201.91
2019-06-27T23:28:49.647Z,99204.59
2019-06-27T23:31:55.340Z,99203.92
2019-06-27T23:35:01.042Z,99205.20
2019-06-27T23:38:06.692Z,99202.77
2019-06-27T23:41:12.396Z,99209.65
2019-06-27T23:44:18.071Z,99198.42
2019-06-27T23:47:23.749Z,99206.77
2019-06-27T23:50:30.439Z,99210.69
2019-06-27T23:53:36.120Z,99202.78
2019-06-27T23:56:41.810Z,99201.98
2019-06-27T23:59:47.490Z,99199.01
